sensor_id;sensor_type;location;lat;lon;timestamp;P1;durP1;ratioP1;P2;durP2;ratioP2
49812;SDS011;35706;52.100;5.056;2024-03-08T00:00:34;40.33;;;18.52;;
49812;SDS011;35706;52.100;5.056;2024-03-08T00:01:35;36.80;;;17.35;;
49812;SDS011;35706;52.100;5.056;2024-03-08T00:02:36;40.78;;;17.88;;
49812;SDS011;35706;52.100;5.056;2024-03-08T00:03:37;41.10;;;18.27;;
49812;SDS011;35706;52.100;5.056;2024-03-08T00:04:37;43.60;;;19.48;;
49812;SDS011;35706;52.100;5.056;2024-03-08T00:05:37;41.60;;;19.20;;
49812;SDS011;35706;52.100;5.056;2024-03-08T00:06:38;37.47;;;17.75;;
49812;SDS011;35706;52.100;5.056;2024-03-08T00:07:40;38.45;;;18.08;;
49812;SDS011;35706;52.100;5.056;2024-03-08T00:08:41;36.65;;;17.45;;
49812;SDS011;35706;52.100;5.056;2024-03-08T00:09:41;39.63;;;17.25;;
49812;SDS011;35706;52.100;5.056;2024-03-08T00:10:42;36.53;;;17.58;;
49812;SDS011;35706;52.100;5.056;2024-03-08T00:11:42;38.20;;;17.77;;
49812;SDS011;35706;52.100;5.056;2024-03-08T00:12:43;39.13;;;17.88;;
49812;SDS011;35706;52.100;5.056;2024-03-08T00:13:44;35.60;;;17.80;;
49812;SDS011;35706;52.100;5.056;2024-03-08T00:14:45;40.60;;;16.83;;
49812;SDS011;35706;52.100;5.056;2024-03-08T00:15:45;38.72;;;17.55;;
49812;SDS011;35706;52.100;5.056;2024-03-08T00:16:45;36.25;;;16.92;;
49812;SDS011;35706;52.100;5.056;2024-03-08T00:17:46;35.58;;;17.50;;
49812;SDS011;35706;52.100;5.056;2024-03-08T00:18:47;39.40;;;17.15;;
49812;SDS011;35706;52.100;5.056;2024-03-08T00:19:49;37.53;;;16.90;;
49812;SDS011;35706;52.100;5.056;2024-03-08T00:20:52;35.08;;;16.65;;
49812;SDS011;35706;52.100;5.056;2024-03-08T00:21:53;35.22;;;17.05;;
49812;SDS011;35706;52.100;5.056;2024-03-08T00:22:53;35.60;;;17.40;;
49812;SDS011;35706;52.100;5.056;2024-03-08T00:23:53;35.38;;;16.55;;
49812;SDS011;35706;52.100;5.056;2024-03-08T00:24:56;37.83;;;16.55;;
49812;SDS011;35706;52.100;5.056;2024-03-08T00:25:56;35.65;;;17.30;;
49812;SDS011;35706;52.100;5.056;2024-03-08T00:26:57;38.08;;;17.63;;
49812;SDS011;35706;52.100;5.056;2024-03-08T00:27:58;41.05;;;17.88;;
49812;SDS011;35706;52.100;5.056;2024-03-08T00:28:59;33.60;;;16.38;;
49812;SDS011;35706;52.100;5.056;2024-03-08T00:30:00;34.20;;;16.80;;
49812;SDS011;35706;52.100;5.056;2024-03-08T00:31:01;41.80;;;17.25;;
49812;SDS011;35706;52.100;5.056;2024-03-08T00:32:01;33.78;;;17.23;;
49812;SDS011;35706;52.100;5.056;2024-03-08T00:33:01;39.22;;;17.75;;
49812;SDS011;35706;52.100;5.056;2024-03-08T00:34:02;35.25;;;16.55;;
49812;SDS011;35706;52.100;5.056;2024-03-08T00:35:02;35.67;;;16.15;;
49812;SDS011;35706;52.100;5.056;2024-03-08T00:36:03;37.42;;;17.10;;
49812;SDS011;35706;52.100;5.056;2024-03-08T00:37:03;39.65;;;18.08;;
49812;SDS011;35706;52.100;5.056;2024-03-08T00:38:04;33.75;;;17.88;;
49812;SDS011;35706;52.100;5.056;2024-03-08T00:39:04;39.22;;;17.08;;
49812;SDS011;35706;52.100;5.056;2024-03-08T00:40:08;38.67;;;17.30;;
49812;SDS011;35706;52.100;5.056;2024-03-08T00:41:09;49.92;;;23.92;;
49812;SDS011;35706;52.100;5.056;2024-03-08T00:42:09;43.05;;;19.90;;
49812;SDS011;35706;52.100;5.056;2024-03-08T00:43:10;40.63;;;19.30;;
49812;SDS011;35706;52.100;5.056;2024-03-08T00:44:10;41.25;;;16.88;;
49812;SDS011;35706;52.100;5.056;2024-03-08T00:45:10;32.83;;;16.30;;
49812;SDS011;35706;52.100;5.056;2024-03-08T00:46:11;36.78;;;16.73;;
49812;SDS011;35706;52.100;5.056;2024-03-08T00:47:12;35.95;;;17.70;;
49812;SDS011;35706;52.100;5.056;2024-03-08T00:48:12;36.03;;;17.35;;
49812;SDS011;35706;52.100;5.056;2024-03-08T00:49:12;37.72;;;17.05;;
49812;SDS011;35706;52.100;5.056;2024-03-08T00:50:13;37.50;;;17.52;;
49812;SDS011;35706;52.100;5.056;2024-03-08T00:51:13;39.60;;;16.67;;
49812;SDS011;35706;52.100;5.056;2024-03-08T00:52:15;37.42;;;17.38;;
49812;SDS011;35706;52.100;5.056;2024-03-08T00:53:15;37.30;;;18.15;;
49812;SDS011;35706;52.100;5.056;2024-03-08T00:54:16;33.30;;;16.48;;
49812;SDS011;35706;52.100;5.056;2024-03-08T00:55:17;36.97;;;17.58;;
49812;SDS011;35706;52.100;5.056;2024-03-08T00:56:17;37.72;;;17.85;;
49812;SDS011;35706;52.100;5.056;2024-03-08T00:57:17;34.10;;;15.68;;
49812;SDS011;35706;52.100;5.056;2024-03-08T00:58:18;38.80;;;17.38;;
49812;SDS011;35706;52.100;5.056;2024-03-08T00:59:18;33.60;;;16.17;;
49812;SDS011;35706;52.100;5.056;2024-03-08T01:00:19;34.83;;;16.85;;
49812;SDS011;35706;52.100;5.056;2024-03-08T01:01:21;38.65;;;17.77;;
49812;SDS011;35706;52.100;5.056;2024-03-08T01:02:21;39.65;;;16.23;;
49812;SDS011;35706;52.100;5.056;2024-03-08T01:03:23;38.03;;;16.95;;
49812;SDS011;35706;52.100;5.056;2024-03-08T01:04:23;42.55;;;17.75;;
49812;SDS011;35706;52.100;5.056;2024-03-08T01:05:25;36.80;;;17.10;;
49812;SDS011;35706;52.100;5.056;2024-03-08T01:06:26;36.83;;;16.65;;
49812;SDS011;35706;52.100;5.056;2024-03-08T01:07:27;42.97;;;17.92;;
49812;SDS011;35706;52.100;5.056;2024-03-08T01:08:27;39.13;;;17.23;;
49812;SDS011;35706;52.100;5.056;2024-03-08T01:09:28;37.30;;;18.13;;
49812;SDS011;35706;52.100;5.056;2024-03-08T01:10:28;36.97;;;16.38;;
49812;SDS011;35706;52.100;5.056;2024-03-08T01:11:29;36.40;;;17.45;;
49812;SDS011;35706;52.100;5.056;2024-03-08T01:12:29;35.42;;;16.70;;
49812;SDS011;35706;52.100;5.056;2024-03-08T01:13:29;32.80;;;16.23;;
49812;SDS011;35706;52.100;5.056;2024-03-08T01:14:30;39.13;;;17.15;;
49812;SDS011;35706;52.100;5.056;2024-03-08T01:15:31;34.83;;;16.63;;
49812;SDS011;35706;52.100;5.056;2024-03-08T01:16:31;35.10;;;16.00;;
49812;SDS011;35706;52.100;5.056;2024-03-08T01:17:33;34.63;;;16.90;;
49812;SDS011;35706;52.100;5.056;2024-03-08T01:18:33;36.35;;;17.13;;
49812;SDS011;35706;52.100;5.056;2024-03-08T01:19:34;39.10;;;17.25;;
49812;SDS011;35706;52.100;5.056;2024-03-08T01:20:34;35.78;;;16.73;;
49812;SDS011;35706;52.100;5.056;2024-03-08T01:21:34;34.58;;;16.95;;
49812;SDS011;35706;52.100;5.056;2024-03-08T01:22:35;40.30;;;17.73;;
49812;SDS011;35706;52.100;5.056;2024-03-08T01:23:35;36.13;;;16.45;;
49812;SDS011;35706;52.100;5.056;2024-03-08T01:24:35;36.70;;;16.75;;
49812;SDS011;35706;52.100;5.056;2024-03-08T01:25:37;42.63;;;17.83;;
49812;SDS011;35706;52.100;5.056;2024-03-08T01:26:37;35.70;;;17.85;;
49812;SDS011;35706;52.100;5.056;2024-03-08T01:27:38;38.20;;;16.55;;
49812;SDS011;35706;52.100;5.056;2024-03-08T01:28:39;37.10;;;16.70;;
49812;SDS011;35706;52.100;5.056;2024-03-08T01:29:39;34.90;;;16.75;;
49812;SDS011;35706;52.100;5.056;2024-03-08T01:30:39;35.42;;;17.13;;
49812;SDS011;35706;52.100;5.056;2024-03-08T01:31:40;35.30;;;17.05;;
49812;SDS011;35706;52.100;5.056;2024-03-08T01:32:40;34.63;;;16.45;;
49812;SDS011;35706;52.100;5.056;2024-03-08T01:33:40;36.78;;;17.63;;
49812;SDS011;35706;52.100;5.056;2024-03-08T01:34:42;35.45;;;16.25;;
49812;SDS011;35706;52.100;5.056;2024-03-08T01:35:42;31.30;;;16.20;;
49812;SDS011;35706;52.100;5.056;2024-03-08T01:36:42;32.65;;;17.00;;
49812;SDS011;35706;52.100;5.056;2024-03-08T01:37:43;40.22;;;17.88;;
49812;SDS011;35706;52.100;5.056;2024-03-08T01:38:43;35.15;;;16.83;;
49812;SDS011;35706;52.100;5.056;2024-03-08T01:39:43;35.90;;;17.90;;
49812;SDS011;35706;52.100;5.056;2024-03-08T01:40:43;36.80;;;17.25;;
49812;SDS011;35706;52.100;5.056;2024-03-08T01:41:44;36.45;;;16.85;;
49812;SDS011;35706;52.100;5.056;2024-03-08T01:42:44;33.33;;;16.33;;
49812;SDS011;35706;52.100;5.056;2024-03-08T01:43:45;32.97;;;16.85;;
49812;SDS011;35706;52.100;5.056;2024-03-08T01:44:45;34.08;;;17.13;;
49812;SDS011;35706;52.100;5.056;2024-03-08T01:45:46;40.13;;;17.77;;
49812;SDS011;35706;52.100;5.056;2024-03-08T01:46:47;36.95;;;16.95;;
49812;SDS011;35706;52.100;5.056;2024-03-08T01:47:49;36.42;;;17.27;;
49812;SDS011;35706;52.100;5.056;2024-03-08T01:48:50;37.13;;;17.63;;
49812;SDS011;35706;52.100;5.056;2024-03-08T01:49:50;38.10;;;17.70;;
49812;SDS011;35706;52.100;5.056;2024-03-08T01:50:51;34.20;;;17.70;;
49812;SDS011;35706;52.100;5.056;2024-03-08T01:51:53;38.58;;;18.52;;
49812;SDS011;35706;52.100;5.056;2024-03-08T01:52:56;30.85;;;16.15;;
49812;SDS011;35706;52.100;5.056;2024-03-08T01:53:59;41.03;;;18.05;;
49812;SDS011;35706;52.100;5.056;2024-03-08T01:55:03;37.78;;;17.05;;
49812;SDS011;35706;52.100;5.056;2024-03-08T01:56:07;34.42;;;17.60;;
49812;SDS011;35706;52.100;5.056;2024-03-08T01:57:08;36.58;;;17.75;;
49812;SDS011;35706;52.100;5.056;2024-03-08T01:58:09;36.67;;;17.30;;
49812;SDS011;35706;52.100;5.056;2024-03-08T01:59:11;35.92;;;16.30;;
49812;SDS011;35706;52.100;5.056;2024-03-08T02:00:12;35.90;;;17.73;;
49812;SDS011;35706;52.100;5.056;2024-03-08T02:01:13;37.83;;;18.23;;
49812;SDS011;35706;52.100;5.056;2024-03-08T02:02:16;31.73;;;17.10;;
49812;SDS011;35706;52.100;5.056;2024-03-08T02:03:18;37.00;;;17.50;;
49812;SDS011;35706;52.100;5.056;2024-03-08T02:04:19;34.03;;;17.52;;
49812;SDS011;35706;52.100;5.056;2024-03-08T02:05:21;35.15;;;17.02;;
49812;SDS011;35706;52.100;5.056;2024-03-08T02:06:21;37.97;;;17.42;;
49812;SDS011;35706;52.100;5.056;2024-03-08T02:07:21;31.65;;;16.15;;
49812;SDS011;35706;52.100;5.056;2024-03-08T02:08:22;41.55;;;18.40;;
49812;SDS011;35706;52.100;5.056;2024-03-08T02:09:22;34.47;;;17.75;;
49812;SDS011;35706;52.100;5.056;2024-03-08T02:10:24;34.90;;;17.27;;
49812;SDS011;35706;52.100;5.056;2024-03-08T02:11:25;32.63;;;17.55;;
49812;SDS011;35706;52.100;5.056;2024-03-08T02:12:25;34.65;;;17.25;;
49812;SDS011;35706;52.100;5.056;2024-03-08T02:13:25;37.95;;;17.77;;
49812;SDS011;35706;52.100;5.056;2024-03-08T02:14:26;35.53;;;18.13;;
49812;SDS011;35706;52.100;5.056;2024-03-08T02:15:27;34.45;;;16.95;;
49812;SDS011;35706;52.100;5.056;2024-03-08T02:16:54;33.80;;;17.30;;
49812;SDS011;35706;52.100;5.056;2024-03-08T02:17:57;39.88;;;17.88;;
49812;SDS011;35706;52.100;5.056;2024-03-08T02:18:58;34.60;;;16.92;;
49812;SDS011;35706;52.100;5.056;2024-03-08T02:19:58;34.80;;;16.60;;
49812;SDS011;35706;52.100;5.056;2024-03-08T02:21:03;37.13;;;17.27;;
49812;SDS011;35706;52.100;5.056;2024-03-08T02:22:05;33.38;;;16.73;;
49812;SDS011;35706;52.100;5.056;2024-03-08T02:23:06;35.55;;;18.25;;
49812;SDS011;35706;52.100;5.056;2024-03-08T02:24:06;35.63;;;17.98;;
49812;SDS011;35706;52.100;5.056;2024-03-08T02:25:07;34.83;;;17.70;;
49812;SDS011;35706;52.100;5.056;2024-03-08T02:26:08;37.75;;;18.55;;
49812;SDS011;35706;52.100;5.056;2024-03-08T02:27:08;35.30;;;16.98;;
49812;SDS011;35706;52.100;5.056;2024-03-08T02:28:12;37.08;;;17.02;;
49812;SDS011;35706;52.100;5.056;2024-03-08T02:29:13;39.28;;;18.30;;
49812;SDS011;35706;52.100;5.056;2024-03-08T02:30:14;38.17;;;18.17;;
49812;SDS011;35706;52.100;5.056;2024-03-08T02:31:16;33.85;;;17.75;;
49812;SDS011;35706;52.100;5.056;2024-03-08T02:32:16;38.78;;;18.33;;
49812;SDS011;35706;52.100;5.056;2024-03-08T02:33:18;39.20;;;18.38;;
49812;SDS011;35706;52.100;5.056;2024-03-08T02:34:18;34.13;;;18.08;;
49812;SDS011;35706;52.100;5.056;2024-03-08T02:35:18;34.67;;;17.52;;
49812;SDS011;35706;52.100;5.056;2024-03-08T02:36:19;36.35;;;17.98;;
49812;SDS011;35706;52.100;5.056;2024-03-08T02:37:19;36.83;;;18.30;;
49812;SDS011;35706;52.100;5.056;2024-03-08T02:38:20;33.55;;;17.35;;
49812;SDS011;35706;52.100;5.056;2024-03-08T02:39:24;33.88;;;16.60;;
49812;SDS011;35706;52.100;5.056;2024-03-08T02:40:24;33.55;;;17.58;;
49812;SDS011;35706;52.100;5.056;2024-03-08T02:41:24;35.92;;;18.05;;
49812;SDS011;35706;52.100;5.056;2024-03-08T02:42:25;40.15;;;17.92;;
49812;SDS011;35706;52.100;5.056;2024-03-08T02:43:25;39.42;;;19.02;;
49812;SDS011;35706;52.100;5.056;2024-03-08T02:44:25;39.28;;;18.92;;
49812;SDS011;35706;52.100;5.056;2024-03-08T02:45:26;37.13;;;18.30;;
49812;SDS011;35706;52.100;5.056;2024-03-08T02:46:26;34.78;;;18.13;;
49812;SDS011;35706;52.100;5.056;2024-03-08T02:47:26;35.35;;;18.45;;
49812;SDS011;35706;52.100;5.056;2024-03-08T02:48:27;35.95;;;17.67;;
49812;SDS011;35706;52.100;5.056;2024-03-08T02:49:27;37.22;;;18.75;;
49812;SDS011;35706;52.100;5.056;2024-03-08T02:50:27;34.28;;;18.48;;
49812;SDS011;35706;52.100;5.056;2024-03-08T02:51:28;35.33;;;18.40;;
49812;SDS011;35706;52.100;5.056;2024-03-08T02:52:29;39.60;;;19.08;;
49812;SDS011;35706;52.100;5.056;2024-03-08T02:53:30;34.72;;;17.92;;
49812;SDS011;35706;52.100;5.056;2024-03-08T02:54:31;38.92;;;17.92;;
49812;SDS011;35706;52.100;5.056;2024-03-08T02:55:31;39.60;;;18.50;;
49812;SDS011;35706;52.100;5.056;2024-03-08T02:56:33;38.60;;;18.30;;
49812;SDS011;35706;52.100;5.056;2024-03-08T02:57:34;38.92;;;18.48;;
49812;SDS011;35706;52.100;5.056;2024-03-08T02:58:35;35.13;;;18.20;;
49812;SDS011;35706;52.100;5.056;2024-03-08T02:59:35;37.70;;;18.88;;
49812;SDS011;35706;52.100;5.056;2024-03-08T03:00:39;35.53;;;18.33;;
49812;SDS011;35706;52.100;5.056;2024-03-08T03:01:40;33.67;;;17.52;;
49812;SDS011;35706;52.100;5.056;2024-03-08T03:02:41;35.78;;;17.70;;
49812;SDS011;35706;52.100;5.056;2024-03-08T03:03:42;33.85;;;17.52;;
49812;SDS011;35706;52.100;5.056;2024-03-08T03:04:42;35.85;;;18.17;;
49812;SDS011;35706;52.100;5.056;2024-03-08T03:05:43;33.17;;;17.35;;
49812;SDS011;35706;52.100;5.056;2024-03-08T03:06:43;40.10;;;18.95;;
49812;SDS011;35706;52.100;5.056;2024-03-08T03:07:44;36.70;;;18.15;;
49812;SDS011;35706;52.100;5.056;2024-03-08T03:08:44;37.03;;;18.73;;
49812;SDS011;35706;52.100;5.056;2024-03-08T03:09:45;34.17;;;18.13;;
49812;SDS011;35706;52.100;5.056;2024-03-08T03:10:45;34.17;;;17.67;;
49812;SDS011;35706;52.100;5.056;2024-03-08T03:11:46;35.47;;;17.95;;
49812;SDS011;35706;52.100;5.056;2024-03-08T03:12:47;35.40;;;19.02;;
49812;SDS011;35706;52.100;5.056;2024-03-08T03:13:51;33.35;;;18.00;;
49812;SDS011;35706;52.100;5.056;2024-03-08T03:14:51;36.28;;;17.95;;
49812;SDS011;35706;52.100;5.056;2024-03-08T03:15:52;35.20;;;18.65;;
49812;SDS011;35706;52.100;5.056;2024-03-08T03:16:52;34.33;;;17.70;;
49812;SDS011;35706;52.100;5.056;2024-03-08T03:17:52;36.08;;;18.75;;
49812;SDS011;35706;52.100;5.056;2024-03-08T03:18:53;35.42;;;18.90;;
49812;SDS011;35706;52.100;5.056;2024-03-08T03:19:53;34.55;;;18.90;;
49812;SDS011;35706;52.100;5.056;2024-03-08T03:20:53;34.47;;;17.92;;
49812;SDS011;35706;52.100;5.056;2024-03-08T03:21:54;37.10;;;19.50;;
49812;SDS011;35706;52.100;5.056;2024-03-08T03:22:54;35.50;;;18.45;;
49812;SDS011;35706;52.100;5.056;2024-03-08T03:23:56;37.92;;;17.90;;
49812;SDS011;35706;52.100;5.056;2024-03-08T03:24:57;33.85;;;17.90;;
49812;SDS011;35706;52.100;5.056;2024-03-08T03:25:58;33.20;;;18.17;;
49812;SDS011;35706;52.100;5.056;2024-03-08T03:26:59;36.38;;;18.85;;
49812;SDS011;35706;52.100;5.056;2024-03-08T03:28:00;34.47;;;19.00;;
49812;SDS011;35706;52.100;5.056;2024-03-08T03:29:05;37.67;;;18.60;;
49812;SDS011;35706;52.100;5.056;2024-03-08T03:30:06;35.72;;;19.20;;
49812;SDS011;35706;52.100;5.056;2024-03-08T03:31:22;34.08;;;17.23;;
49812;SDS011;35706;52.100;5.056;2024-03-08T03:32:24;33.22;;;18.02;;
49812;SDS011;35706;52.100;5.056;2024-03-08T03:33:24;35.55;;;18.23;;
49812;SDS011;35706;52.100;5.056;2024-03-08T03:34:25;35.10;;;19.08;;
49812;SDS011;35706;52.100;5.056;2024-03-08T03:35:25;37.40;;;18.47;;
49812;SDS011;35706;52.100;5.056;2024-03-08T03:36:27;35.50;;;18.83;;
49812;SDS011;35706;52.100;5.056;2024-03-08T03:37:30;34.17;;;18.20;;
49812;SDS011;35706;52.100;5.056;2024-03-08T03:38:31;36.22;;;18.08;;
49812;SDS011;35706;52.100;5.056;2024-03-08T03:39:31;30.67;;;17.98;;
49812;SDS011;35706;52.100;5.056;2024-03-08T03:40:38;33.65;;;18.92;;
49812;SDS011;35706;52.100;5.056;2024-03-08T03:41:42;32.63;;;17.67;;
49812;SDS011;35706;52.100;5.056;2024-03-08T03:42:45;34.63;;;19.17;;
49812;SDS011;35706;52.100;5.056;2024-03-08T03:43:46;37.17;;;18.38;;
49812;SDS011;35706;52.100;5.056;2024-03-08T03:44:47;36.60;;;17.80;;
49812;SDS011;35706;52.100;5.056;2024-03-08T03:45:48;32.03;;;17.77;;
49812;SDS011;35706;52.100;5.056;2024-03-08T03:46:48;38.88;;;19.48;;
49812;SDS011;35706;52.100;5.056;2024-03-08T03:47:50;32.97;;;18.10;;
49812;SDS011;35706;52.100;5.056;2024-03-08T03:48:51;34.27;;;18.20;;
49812;SDS011;35706;52.100;5.056;2024-03-08T03:49:52;42.85;;;19.80;;
49812;SDS011;35706;52.100;5.056;2024-03-08T03:50:54;34.20;;;19.05;;
49812;SDS011;35706;52.100;5.056;2024-03-08T03:51:54;37.53;;;19.48;;
49812;SDS011;35706;52.100;5.056;2024-03-08T03:52:54;33.70;;;19.23;;
49812;SDS011;35706;52.100;5.056;2024-03-08T03:53:55;37.43;;;19.27;;
49812;SDS011;35706;52.100;5.056;2024-03-08T03:54:57;35.87;;;18.93;;
49812;SDS011;35706;52.100;5.056;2024-03-08T03:55:58;40.33;;;19.20;;
49812;SDS011;35706;52.100;5.056;2024-03-08T03:56:59;37.63;;;19.58;;
49812;SDS011;35706;52.100;5.056;2024-03-08T03:58:00;34.63;;;19.45;;
49812;SDS011;35706;52.100;5.056;2024-03-08T03:59:01;40.63;;;19.38;;
49812;SDS011;35706;52.100;5.056;2024-03-08T04:00:01;37.00;;;19.52;;
49812;SDS011;35706;52.100;5.056;2024-03-08T04:01:04;37.00;;;19.20;;
49812;SDS011;35706;52.100;5.056;2024-03-08T04:02:04;36.83;;;18.70;;
49812;SDS011;35706;52.100;5.056;2024-03-08T04:03:05;37.53;;;18.73;;
49812;SDS011;35706;52.100;5.056;2024-03-08T04:04:05;35.42;;;19.63;;
49812;SDS011;35706;52.100;5.056;2024-03-08T04:05:06;37.08;;;19.00;;
49812;SDS011;35706;52.100;5.056;2024-03-08T04:06:07;37.92;;;19.55;;
49812;SDS011;35706;52.100;5.056;2024-03-08T04:07:08;34.05;;;19.40;;
49812;SDS011;35706;52.100;5.056;2024-03-08T04:08:09;38.20;;;19.40;;
49812;SDS011;35706;52.100;5.056;2024-03-08T04:09:10;35.30;;;19.20;;
49812;SDS011;35706;52.100;5.056;2024-03-08T04:10:11;32.60;;;19.38;;
49812;SDS011;35706;52.100;5.056;2024-03-08T04:11:12;32.25;;;18.63;;
49812;SDS011;35706;52.100;5.056;2024-03-08T04:12:12;31.67;;;18.02;;
49812;SDS011;35706;52.100;5.056;2024-03-08T04:13:12;34.67;;;19.27;;
49812;SDS011;35706;52.100;5.056;2024-03-08T04:14:12;30.92;;;18.52;;
49812;SDS011;35706;52.100;5.056;2024-03-08T04:15:13;38.88;;;18.85;;
49812;SDS011;35706;52.100;5.056;2024-03-08T04:16:14;37.00;;;18.85;;
49812;SDS011;35706;52.100;5.056;2024-03-08T04:17:14;35.78;;;19.55;;
49812;SDS011;35706;52.100;5.056;2024-03-08T04:18:14;38.97;;;19.23;;
49812;SDS011;35706;52.100;5.056;2024-03-08T04:19:15;30.70;;;17.80;;
49812;SDS011;35706;52.100;5.056;2024-03-08T04:20:15;40.15;;;19.35;;
49812;SDS011;35706;52.100;5.056;2024-03-08T04:21:17;38.00;;;18.70;;
49812;SDS011;35706;52.100;5.056;2024-03-08T04:22:19;40.58;;;20.52;;
49812;SDS011;35706;52.100;5.056;2024-03-08T04:23:20;32.30;;;18.50;;
49812;SDS011;35706;52.100;5.056;2024-03-08T04:24:20;34.80;;;19.35;;
49812;SDS011;35706;52.100;5.056;2024-03-08T04:25:20;33.80;;;18.65;;
49812;SDS011;35706;52.100;5.056;2024-03-08T04:26:21;32.00;;;18.13;;
49812;SDS011;35706;52.100;5.056;2024-03-08T04:27:22;36.35;;;19.48;;
49812;SDS011;35706;52.100;5.056;2024-03-08T04:28:22;34.80;;;18.42;;
49812;SDS011;35706;52.100;5.056;2024-03-08T04:29:22;33.08;;;19.23;;
49812;SDS011;35706;52.100;5.056;2024-03-08T04:30:23;36.22;;;20.02;;
49812;SDS011;35706;52.100;5.056;2024-03-08T04:31:24;37.08;;;19.98;;
49812;SDS011;35706;52.100;5.056;2024-03-08T04:32:26;35.70;;;18.65;;
49812;SDS011;35706;52.100;5.056;2024-03-08T04:33:28;39.47;;;19.65;;
49812;SDS011;35706;52.100;5.056;2024-03-08T04:34:28;36.47;;;20.17;;
49812;SDS011;35706;52.100;5.056;2024-03-08T04:35:28;35.38;;;19.35;;
49812;SDS011;35706;52.100;5.056;2024-03-08T04:36:30;32.03;;;18.75;;
49812;SDS011;35706;52.100;5.056;2024-03-08T04:37:30;35.40;;;19.42;;
49812;SDS011;35706;52.100;5.056;2024-03-08T04:38:31;36.10;;;18.85;;
49812;SDS011;35706;52.100;5.056;2024-03-08T04:39:31;36.22;;;19.98;;
49812;SDS011;35706;52.100;5.056;2024-03-08T04:40:32;36.17;;;19.20;;
49812;SDS011;35706;52.100;5.056;2024-03-08T04:41:32;39.22;;;19.30;;
49812;SDS011;35706;52.100;5.056;2024-03-08T04:42:34;37.78;;;19.40;;
49812;SDS011;35706;52.100;5.056;2024-03-08T04:43:37;34.63;;;19.10;;
49812;SDS011;35706;52.100;5.056;2024-03-08T04:44:37;35.97;;;19.63;;
49812;SDS011;35706;52.100;5.056;2024-03-08T04:45:38;34.85;;;19.27;;
49812;SDS011;35706;52.100;5.056;2024-03-08T04:46:39;34.60;;;19.10;;
49812;SDS011;35706;52.100;5.056;2024-03-08T04:47:39;38.03;;;20.30;;
49812;SDS011;35706;52.100;5.056;2024-03-08T04:48:40;35.97;;;20.30;;
49812;SDS011;35706;52.100;5.056;2024-03-08T04:49:42;34.72;;;18.17;;
49812;SDS011;35706;52.100;5.056;2024-03-08T04:50:42;35.78;;;19.10;;
49812;SDS011;35706;52.100;5.056;2024-03-08T04:51:44;31.35;;;18.60;;
49812;SDS011;35706;52.100;5.056;2024-03-08T04:52:45;40.08;;;19.80;;
49812;SDS011;35706;52.100;5.056;2024-03-08T04:53:46;35.05;;;19.58;;
49812;SDS011;35706;52.100;5.056;2024-03-08T04:54:46;36.30;;;18.93;;
49812;SDS011;35706;52.100;5.056;2024-03-08T04:55:46;37.93;;;18.10;;
49812;SDS011;35706;52.100;5.056;2024-03-08T04:56:47;34.30;;;18.50;;
49812;SDS011;35706;52.100;5.056;2024-03-08T04:57:48;36.72;;;20.05;;
49812;SDS011;35706;52.100;5.056;2024-03-08T04:58:48;33.58;;;19.42;;
49812;SDS011;35706;52.100;5.056;2024-03-08T04:59:49;39.08;;;20.83;;
49812;SDS011;35706;52.100;5.056;2024-03-08T05:00:49;41.55;;;21.08;;
49812;SDS011;35706;52.100;5.056;2024-03-08T05:01:50;36.47;;;19.77;;
49812;SDS011;35706;52.100;5.056;2024-03-08T05:02:51;38.38;;;18.85;;
49812;SDS011;35706;52.100;5.056;2024-03-08T05:03:53;38.70;;;19.10;;
49812;SDS011;35706;52.100;5.056;2024-03-08T05:04:56;33.15;;;19.30;;
49812;SDS011;35706;52.100;5.056;2024-03-08T05:05:56;36.25;;;20.17;;
49812;SDS011;35706;52.100;5.056;2024-03-08T05:06:57;36.38;;;18.92;;
49812;SDS011;35706;52.100;5.056;2024-03-08T05:07:57;35.42;;;19.55;;
49812;SDS011;35706;52.100;5.056;2024-03-08T05:08:57;36.55;;;19.38;;
49812;SDS011;35706;52.100;5.056;2024-03-08T05:09:58;35.10;;;19.70;;
49812;SDS011;35706;52.100;5.056;2024-03-08T05:10:59;34.80;;;19.30;;
49812;SDS011;35706;52.100;5.056;2024-03-08T05:12:02;38.87;;;20.33;;
49812;SDS011;35706;52.100;5.056;2024-03-08T05:13:03;37.47;;;19.90;;
49812;SDS011;35706;52.100;5.056;2024-03-08T05:14:03;32.80;;;19.13;;
49812;SDS011;35706;52.100;5.056;2024-03-08T05:15:04;36.13;;;19.63;;
49812;SDS011;35706;52.100;5.056;2024-03-08T05:16:05;39.53;;;20.40;;
49812;SDS011;35706;52.100;5.056;2024-03-08T05:17:07;39.53;;;19.83;;
49812;SDS011;35706;52.100;5.056;2024-03-08T05:18:07;37.47;;;19.20;;
49812;SDS011;35706;52.100;5.056;2024-03-08T05:19:11;33.67;;;19.63;;
49812;SDS011;35706;52.100;5.056;2024-03-08T05:20:11;39.47;;;20.30;;
49812;SDS011;35706;52.100;5.056;2024-03-08T05:21:13;37.17;;;18.97;;
49812;SDS011;35706;52.100;5.056;2024-03-08T05:22:13;35.13;;;19.43;;
49812;SDS011;35706;52.100;5.056;2024-03-08T05:23:14;32.93;;;18.93;;
49812;SDS011;35706;52.100;5.056;2024-03-08T05:24:14;37.92;;;20.08;;
49812;SDS011;35706;52.100;5.056;2024-03-08T05:25:15;37.83;;;20.00;;
49812;SDS011;35706;52.100;5.056;2024-03-08T05:26:16;38.77;;;19.20;;
49812;SDS011;35706;52.100;5.056;2024-03-08T05:27:16;37.70;;;19.83;;
49812;SDS011;35706;52.100;5.056;2024-03-08T05:28:17;36.50;;;20.63;;
49812;SDS011;35706;52.100;5.056;2024-03-08T05:29:17;42.87;;;20.67;;
49812;SDS011;35706;52.100;5.056;2024-03-08T05:30:18;36.57;;;20.60;;
49812;SDS011;35706;52.100;5.056;2024-03-08T05:31:21;35.10;;;19.80;;
49812;SDS011;35706;52.100;5.056;2024-03-08T05:32:24;34.60;;;19.47;;
49812;SDS011;35706;52.100;5.056;2024-03-08T05:33:25;37.23;;;19.80;;
49812;SDS011;35706;52.100;5.056;2024-03-08T05:34:25;38.13;;;19.70;;
49812;SDS011;35706;52.100;5.056;2024-03-08T05:35:26;41.17;;;20.27;;
49812;SDS011;35706;52.100;5.056;2024-03-08T05:36:26;37.00;;;20.27;;
49812;SDS011;35706;52.100;5.056;2024-03-08T05:37:26;37.83;;;20.80;;
49812;SDS011;35706;52.100;5.056;2024-03-08T05:38:27;40.60;;;19.83;;
49812;SDS011;35706;52.100;5.056;2024-03-08T05:39:28;41.23;;;20.77;;
49812;SDS011;35706;52.100;5.056;2024-03-08T05:40:28;36.37;;;20.47;;
49812;SDS011;35706;52.100;5.056;2024-03-08T05:41:32;37.27;;;20.67;;
49812;SDS011;35706;52.100;5.056;2024-03-08T05:42:32;40.00;;;20.90;;
49812;SDS011;35706;52.100;5.056;2024-03-08T05:43:32;39.50;;;21.20;;
49812;SDS011;35706;52.100;5.056;2024-03-08T05:44:33;36.67;;;20.05;;
49812;SDS011;35706;52.100;5.056;2024-03-08T05:45:33;35.87;;;19.97;;
49812;SDS011;35706;52.100;5.056;2024-03-08T05:46:34;36.05;;;20.40;;
49812;SDS011;35706;52.100;5.056;2024-03-08T05:47:39;32.20;;;19.03;;
49812;SDS011;35706;52.100;5.056;2024-03-08T05:48:39;37.30;;;19.43;;
49812;SDS011;35706;52.100;5.056;2024-03-08T05:49:39;32.97;;;19.70;;
49812;SDS011;35706;52.100;5.056;2024-03-08T05:50:40;36.60;;;20.20;;
49812;SDS011;35706;52.100;5.056;2024-03-08T05:51:40;36.92;;;19.58;;
49812;SDS011;35706;52.100;5.056;2024-03-08T05:52:41;35.77;;;20.07;;
49812;SDS011;35706;52.100;5.056;2024-03-08T05:53:41;38.93;;;19.93;;
49812;SDS011;35706;52.100;5.056;2024-03-08T05:54:41;36.43;;;20.17;;
49812;SDS011;35706;52.100;5.056;2024-03-08T05:55:42;37.38;;;20.80;;
49812;SDS011;35706;52.100;5.056;2024-03-08T05:56:43;39.40;;;21.20;;